Time;durP1;ratioP1;P1;durP2;ratioP2;P2;SDS_P1;SDS_P2;PMS_P1;PMS_P2;Temp;Humidity;BMP_temperature;BMP_pressure;BME280_temperature;BME280_humidity;BME280_pressure;Samples;Min_cycle;Max_cycle;Signal;HPM_P1;HPM_P2
2022/12/26 00:01:38;;;;;;;9.97;9.07;;;9.10;1.00;;;;;;6288574;28;20315;-53
2022/12/26 00:04:41;;;;;;;9.77;8.93;;;9.10;1.00;;;;;;6291550;28;20236;-55
2022/12/26 00:07:55;;;;;;;10.43;9.43;;;9.10;1.00;;;;;;6306966;28;20271;-54
2022/12/26 00:10:58;;;;;;;12.83;9.97;;;9.20;1.00;;;;;;6292926;28;20720;-55
2022/12/26 00:14:04;;;;;;;9.67;8.67;;;9.20;1.00;;;;;;6274647;28;20741;-55
2022/12/26 00:17:08;;;;;;;9.60;8.70;;;9.30;1.00;;;;;;6282529;28;20241;-56
2022/12/26 00:20:11;;;;;;;8.77;7.97;;;9.30;1.00;;;;;;6286854;28;20229;-55
2022/12/26 00:23:14;;;;;;;9.37;8.53;;;9.30;1.00;;;;;;6282659;28;20348;-55
2022/12/26 00:26:19;;;;;;;9.57;8.77;;;9.30;1.00;;;;;;6270647;28;20249;-56
2022/12/26 00:29:22;;;;;;;10.30;9.37;;;9.30;1.00;;;;;;6281731;28;20244;-55
2022/12/26 00:32:27;;;;;;;9.80;8.90;;;9.20;1.00;;;;;;6305037;28;20439;-57
2022/12/26 00:35:30;;;;;;;9.37;8.67;;;9.30;1.00;;;;;;6306615;28;20648;-55
2022/12/26 00:38:34;;;;;;;9.37;8.77;;;9.30;1.00;;;;;;6295689;28;20237;-56
2022/12/26 00:41:37;;;;;;;11.67;9.27;;;9.30;1.00;;;;;;6302589;28;20457;-55
2022/12/26 00:44:40;;;;;;;9.30;8.57;;;9.30;1.00;;;;;;6275646;28;20233;-56
2022/12/26 00:47:44;;;;;;;10.57;8.77;;;9.30;1.00;;;;;;6273317;28;20230;-56
2022/12/26 00:50:47;;;;;;;8.27;7.57;;;9.30;1.00;;;;;;6266191;28;20237;-55
2022/12/26 00:53:50;;;;;;;9.87;8.90;;;9.30;1.00;;;;;;6283329;28;20229;-56
2022/12/26 00:56:53;;;;;;;8.57;7.80;;;9.30;1.00;;;;;;6283372;28;20235;-55
2022/12/26 00:59:56;;;;;;;9.30;8.50;;;9.30;1.00;;;;;;6282702;28;21704;-56
2022/12/26 01:03:01;;;;;;;9.00;8.30;;;9.30;1.00;;;;;;6301698;28;20743;-55
2022/12/26 01:06:04;;;;;;;8.73;8.13;;;9.30;1.00;;;;;;6306377;28;20240;-62
2022/12/26 01:09:10;;;;;;;10.10;9.20;;;9.30;1.00;;;;;;6302593;27;20665;-55
2022/12/26 01:12:14;;;;;;;9.17;8.47;;;9.40;1.00;;;;;;6289043;28;20229;-55
2022/12/26 01:15:18;;;;;;;9.60;8.90;;;9.40;1.00;;;;;;6293131;28;20240;-55
2022/12/26 01:18:23;;;;;;;9.07;8.47;;;9.40;1.00;;;;;;6290746;28;20813;-55
2022/12/26 01:21:26;;;;;;;10.27;9.37;;;9.30;1.00;;;;;;6273450;28;20603;-56
2022/12/26 01:24:29;;;;;;;9.27;8.47;;;9.40;1.00;;;;;;6281199;28;20704;-55
2022/12/26 01:27:32;;;;;;;11.77;9.87;;;9.40;1.00;;;;;;6280752;28;20237;-56
2022/12/26 01:30:34;;;;;;;9.57;8.77;;;9.40;1.00;;;;;;6282469;28;20240;-56
2022/12/26 01:33:39;;;;;;;9.00;8.30;;;9.40;1.00;;;;;;6286991;28;20646;-56
2022/12/26 01:36:42;;;;;;;8.70;7.90;;;9.40;1.00;;;;;;6276320;28;20669;-56
2022/12/26 01:39:45;;;;;;;8.33;7.73;;;9.50;1.00;;;;;;6302517;28;20236;-55
2022/12/26 01:42:48;;;;;;;8.47;7.90;;;9.50;1.00;;;;;;6276371;28;20247;-55
2022/12/26 01:45:51;;;;;;;8.17;7.40;;;9.50;1.00;;;;;;6280684;28;20264;-56
2022/12/26 01:48:58;;;;;;;8.30;7.73;;;9.50;1.00;;;;;;6280595;28;20637;-56
2022/12/26 01:52:06;;;;;;;8.57;7.87;;;9.50;1.00;;;;;;6280436;28;20233;-56
2022/12/26 01:55:13;;;;;;;8.50;7.77;;;9.50;1.00;;;;;;6285010;28;20772;-55
2022/12/26 01:58:21;;;;;;;8.50;7.90;;;9.50;1.00;;;;;;6273014;28;20621;-55
2022/12/26 02:01:29;;;;;;;7.60;6.90;;;9.50;1.00;;;;;;6289556;28;20233;-56
2022/12/26 02:07:57;;;;;;;8.07;7.40;;;9.50;1.00;;;;;;6289213;28;20274;-57
2022/12/26 02:11:07;;;;;;;7.60;7.10;;;9.50;1.00;;;;;;6310510;28;20252;-55
2022/12/26 02:14:11;;;;;;;7.20;6.77;;;9.60;1.00;;;;;;6309966;28;20228;-57
2022/12/26 02:17:14;;;;;;;7.57;7.10;;;9.60;1.00;;;;;;6301743;28;20263;-57
2022/12/26 02:20:21;;;;;;;7.53;7.03;;;9.60;1.00;;;;;;6299345;28;20245;-55
2022/12/26 02:23:57;;;;;;;7.07;6.53;;;9.70;1.00;;;;;;6275667;28;20238;-56
2022/12/26 02:27:21;;;;;;;7.13;6.50;;;9.70;1.00;;;;;;6279903;28;20229;-56
2022/12/26 02:30:44;;;;;;;7.00;6.40;;;9.70;1.00;;;;;;6291569;28;20244;-56
2022/12/26 02:34:00;;;;;;;6.80;6.40;;;9.80;1.00;;;;;;6279434;28;20594;-55
2022/12/26 02:37:22;;;;;;;6.97;6.37;;;9.80;1.00;;;;;;6309435;27;20237;-55
2022/12/26 02:40:41;;;;;;;7.60;6.87;;;9.80;1.00;;;;;;6293414;28;20720;-55
2022/12/26 02:43:55;;;;;;;6.63;6.23;;;9.90;1.00;;;;;;6287161;28;20422;-56
2022/12/26 02:47:05;;;;;;;7.33;6.80;;;9.90;1.00;;;;;;6276663;28;20226;-55
2022/12/26 03:14:16;;;;;;;7.20;6.77;;;10.10;1.00;;;;;;6302024;28;20240;-55
2022/12/26 03:17:27;;;;;;;7.17;6.77;;;10.00;1.00;;;;;;6275155;28;20637;-55
2022/12/26 03:20:35;;;;;;;7.27;6.63;;;10.10;1.00;;;;;;6283819;28;20252;-58
2022/12/26 03:23:42;;;;;;;6.97;6.37;;;10.10;1.00;;;;;;6283650;28;20233;-55
2022/12/26 03:26:50;;;;;;;7.20;6.80;;;10.10;1.00;;;;;;6283210;28;20233;-55
2022/12/26 03:36:46;;;;;;;6.30;5.93;;;10.20;1.00;;;;;;6281071;28;20229;-56
2022/12/26 04:45:24;;;;;;;6.87;6.47;;;10.30;1.00;;;;;;6278399;28;20334;-56
2022/12/26 04:51:47;;;;;;;6.40;5.90;;;10.30;1.00;;;;;;6273766;28;20619;-57
2022/12/26 04:54:50;;;;;;;7.00;6.50;;;10.30;1.00;;;;;;6289416;28;20490;-57
2022/12/26 04:57:53;;;;;;;6.23;5.90;;;10.30;1.00;;;;;;6288759;28;20229;-55
2022/12/26 05:09:32;;;;;;;7.13;6.73;;;10.40;1.00;;;;;;6282129;28;20409;-55
2022/12/26 05:11:04;;;;;;;6.63;6.17;;;10.50;1.00;;;;;;6290107;28;20719;-59
2022/12/26 05:14:07;;;;;;;5.90;5.70;;;10.50;1.00;;;;;;6285552;28;20248;-55
2022/12/26 05:30:36;;;;;;;6.60;6.20;;;10.60;1.00;;;;;;6298132;28;20243;-55
2022/12/26 05:37:02;;;;;;;6.63;6.17;;;10.50;1.00;;;;;;6291307;28;20292;-55
2022/12/26 05:40:06;;;;;;;6.43;6.13;;;10.50;1.00;;;;;;6297044;28;20236;-56
2022/12/26 05:43:09;;;;;;;6.43;6.10;;;10.40;1.00;;;;;;6282075;28;20236;-56
2022/12/26 05:46:12;;;;;;;6.30;6.00;;;10.50;1.00;;;;;;6298150;28;20369;-55
2022/12/26 05:49:16;;;;;;;6.53;6.23;;;10.50;1.00;;;;;;6304095;28;20236;-55
2022/12/26 05:52:19;;;;;;;6.80;6.40;;;10.50;1.00;;;;;;6289655;28;20251;-56
2022/12/26 05:55:23;;;;;;;6.17;5.77;;;10.60;1.00;;;;;;6285141;28;22824;-55
2022/12/26 05:58:26;;;;;;;6.40;6.10;;;10.60;1.00;;;;;;6277621;28;20319;-55
2022/12/26 06:01:30;;;;;;;6.10;5.80;;;10.60;1.00;;;;;;6284347;28;20407;-56
2022/12/26 06:04:35;;;;;;;6.20;5.80;;;10.60;1.00;;;;;;6290180;28;20657;-56
2022/12/26 06:07:38;;;;;;;6.50;6.00;;;10.50;1.00;;;;;;6288159;28;20257;-56
2022/12/26 06:10:41;;;;;;;5.97;5.70;;;10.60;1.00;;;;;;6299885;28;20233;-57
2022/12/26 06:13:44;;;;;;;5.70;5.43;;;10.60;1.00;;;;;;6298247;28;20897;-56
2022/12/26 06:16:48;;;;;;;6.17;5.77;;;10.60;1.00;;;;;;6300594;28;20831;-57
2022/12/26 06:19:52;;;;;;;6.10;5.57;;;10.60;1.00;;;;;;6297078;28;20232;-53
2022/12/26 06:22:55;;;;;;;6.13;5.73;;;10.60;1.00;;;;;;6300460;28;20636;-54
2022/12/26 06:25:58;;;;;;;5.80;5.50;;;10.60;1.00;;;;;;6304642;28;20228;-55
2022/12/26 06:29:01;;;;;;;5.97;5.60;;;10.60;1.00;;;;;;6303996;28;20259;-55
2022/12/26 06:32:05;;;;;;;5.20;5.10;;;10.60;1.00;;;;;;6298172;28;20378;-56
2022/12/26 06:35:09;;;;;;;5.47;5.23;;;10.60;1.00;;;;;;6283725;28;20247;-57
2022/12/26 06:38:12;;;;;;;5.77;5.57;;;10.60;1.00;;;;;;6280354;28;20237;-56
2022/12/26 06:41:19;;;;;;;6.10;5.80;;;10.70;1.00;;;;;;6286372;28;20242;-56
2022/12/26 06:44:22;;;;;;;6.10;5.80;;;10.60;1.00;;;;;;6286202;28;20237;-56
2022/12/26 06:47:25;;;;;;;6.57;5.83;;;10.70;1.00;;;;;;6292943;28;20241;-56
2022/12/26 06:50:29;;;;;;;5.67;5.27;;;10.70;1.00;;;;;;6295618;28;20245;-56
2022/12/26 06:53:34;;;;;;;5.50;5.20;;;10.70;1.00;;;;;;6294907;28;20321;-56
2022/12/26 06:56:37;;;;;;;6.23;5.93;;;10.70;1.00;;;;;;6300082;28;20239;-55
2022/12/26 06:59:40;;;;;;;6.27;5.77;;;10.70;1.00;;;;;;6307560;28;20685;-57
2022/12/26 07:02:43;;;;;;;5.53;5.10;;;10.70;1.00;;;;;;6296128;28;20263;-56
2022/12/26 07:05:48;;;;;;;5.83;5.53;;;10.70;1.00;;;;;;6294352;28;20244;-56
2022/12/26 07:08:51;;;;;;;5.40;5.10;;;10.70;1.00;;;;;;6287742;28;20470;-56
2022/12/26 07:11:55;;;;;;;5.53;5.33;;;10.70;1.00;;;;;;6308331;28;21017;-56
2022/12/26 07:14:58;;;;;;;6.33;5.87;;;10.70;1.00;;;;;;6288695;28;20364;-55
2022/12/26 07:18:04;;;;;;;5.70;5.30;;;10.70;1.00;;;;;;6304260;28;20744;-55
2022/12/26 07:21:11;;;;;;;6.27;5.80;;;10.60;1.00;;;;;;6307936;28;20307;-55
2022/12/26 07:24:16;;;;;;;5.87;5.67;;;10.60;1.00;;;;;;6305727;28;20236;-56
2022/12/26 07:27:19;;;;;;;5.63;5.30;;;10.60;1.00;;;;;;6307093;28;20237;-55
2022/12/26 07:30:22;;;;;;;5.67;5.30;;;10.60;1.00;;;;;;6297972;28;20226;-56
2022/12/26 07:33:25;;;;;;;5.20;5.03;;;10.60;1.00;;;;;;6300399;28;20382;-56
2022/12/26 07:36:30;;;;;;;6.13;5.67;;;10.60;1.00;;;;;;6295059;28;20245;-56
2022/12/26 07:39:32;;;;;;;6.23;5.83;;;10.60;1.00;;;;;;6300290;28;20630;-55
2022/12/26 07:42:35;;;;;;;6.73;6.20;;;10.60;1.00;;;;;;6292245;28;20622;-56
2022/12/26 07:45:38;;;;;;;5.90;5.53;;;10.60;1.00;;;;;;6288494;28;20458;-56
2022/12/26 07:48:47;;;;;;;6.43;5.97;;;10.60;1.00;;;;;;6287924;28;20387;-56
2022/12/26 07:51:52;;;;;;;5.57;5.27;;;10.60;1.00;;;;;;6297165;28;20228;-55
2022/12/26 07:54:55;;;;;;;6.23;6.00;;;10.50;1.00;;;;;;6286487;28;20225;-56
2022/12/26 07:57:58;;;;;;;6.20;5.80;;;10.50;1.00;;;;;;6281858;28;20335;-57
2022/12/26 08:01:01;;;;;;;6.40;5.90;;;10.50;1.00;;;;;;6290138;28;20233;-54
2022/12/26 08:04:04;;;;;;;5.80;5.53;;;10.50;1.00;;;;;;6305810;28;20387;-57
2022/12/26 08:07:10;;;;;;;6.20;5.80;;;10.50;1.00;;;;;;6298072;28;20237;-56
2022/12/26 08:10:13;;;;;;;6.63;6.30;;;10.50;1.00;;;;;;6302721;28;20772;-55
2022/12/26 08:13:16;;;;;;;6.47;6.17;;;10.50;1.00;;;;;;6282175;28;20319;-59
2022/12/26 08:16:19;;;;;;;6.23;5.90;;;10.50;1.00;;;;;;6295442;28;20352;-56
2022/12/26 08:19:22;;;;;;;5.80;5.50;;;10.50;1.00;;;;;;6277222;28;20612;-55
2022/12/26 08:22:27;;;;;;;5.87;5.47;;;10.50;1.00;;;;;;6307037;28;20392;-58
2022/12/26 08:25:30;;;;;;;5.00;4.80;;;10.50;1.00;;;;;;6298766;28;20241;-56
2022/12/26 08:28:33;;;;;;;5.27;5.07;;;10.50;1.00;;;;;;6296379;28;20766;-55
2022/12/26 08:31:36;;;;;;;5.60;5.30;;;10.60;1.00;;;;;;6302865;28;20225;-56
2022/12/26 08:34:39;;;;;;;5.10;4.93;;;10.60;1.00;;;;;;6285362;28;20619;-55
2022/12/26 08:37:44;;;;;;;5.47;5.13;;;10.60;1.00;;;;;;6287819;28;20233;-58
2022/12/26 08:40:55;;;;;;;5.27;4.97;;;10.60;1.00;;;;;;6280924;28;20597;-56
2022/12/26 08:43:58;;;;;;;5.20;5.00;;;10.70;1.00;;;;;;6291444;28;20638;-56
2022/12/26 08:47:25;;;;;;;5.27;4.97;;;10.70;1.00;;;;;;6304457;28;20271;-56
2022/12/26 08:50:28;;;;;;;5.20;5.00;;;10.80;1.00;;;;;;6291901;28;20237;-56
2022/12/26 08:53:34;;;;;;;4.90;4.80;;;10.80;1.00;;;;;;6297838;28;20237;-56
2022/12/26 08:56:37;;;;;;;4.87;4.63;;;10.80;1.00;;;;;;6285334;28;20301;-55
2022/12/26 08:59:40;;;;;;;4.70;4.53;;;10.80;1.00;;;;;;6305399;28;20332;-57
2022/12/26 09:02:43;;;;;;;4.93;4.80;;;10.80;1.00;;;;;;6276519;28;20305;-57
2022/12/26 09:05:47;;;;;;;5.43;5.17;;;10.80;1.00;;;;;;6291904;28;20767;-55
2022/12/26 09:08:52;;;;;;;5.20;5.00;;;10.70;1.00;;;;;;6285247;28;20245;-55
2022/12/26 09:11:55;;;;;;;5.73;5.43;;;10.80;1.00;;;;;;6281898;28;20798;-56
2022/12/26 09:14:58;;;;;;;5.20;5.07;;;10.80;1.00;;;;;;6285772;28;20613;-55
2022/12/26 09:18:02;;;;;;;5.67;5.30;;;10.80;1.00;;;;;;6293077;28;20452;-56
2022/12/26 09:21:07;;;;;;;6.00;5.70;;;10.80;1.00;;;;;;6299868;28;20613;-56
2022/12/26 09:24:13;;;;;;;5.77;5.37;;;10.80;1.00;;;;;;6300751;28;20244;-55
2022/12/26 09:27:16;;;;;;;5.43;5.13;;;10.80;1.00;;;;;;6297238;28;20267;-56
2022/12/26 09:30:20;;;;;;;5.37;5.17;;;10.80;1.00;;;;;;6293412;28;20240;-55
2022/12/26 09:33:23;;;;;;;6.07;5.77;;;10.80;1.00;;;;;;6289006;28;20225;-56
2022/12/26 09:36:28;;;;;;;6.33;5.73;;;10.90;1.00;;;;;;6293874;28;20236;-56
2022/12/26 09:39:33;;;;;;;6.30;5.90;;;10.90;1.00;;;;;;6288159;28;20248;-58
2022/12/26 09:42:43;;;;;;;6.30;5.70;;;10.90;1.00;;;;;;6299038;28;20240;-56
2022/12/26 09:45:57;;;;;;;5.90;5.47;;;10.90;1.00;;;;;;6299100;28;20267;-56
2022/12/26 09:49:04;;;;;;;5.73;5.33;;;10.90;1.00;;;;;;6285429;28;20328;-56
2022/12/26 09:52:13;;;;;;;6.00;5.60;;;10.90;1.00;;;;;;6289473;28;20244;-57
2022/12/26 09:55:30;;;;;;;5.50;5.20;;;10.90;1.00;;;;;;6297855;28;20289;-56
2022/12/26 09:58:36;;;;;;;5.40;5.20;;;10.90;1.00;;;;;;6287919;28;20537;-56
2022/12/26 10:01:40;;;;;;;5.70;5.40;;;10.90;1.00;;;;;;6281640;28;20267;-57
2022/12/26 10:04:43;;;;;;;5.43;5.07;;;11.00;1.00;;;;;;6305204;28;20277;-55
2022/12/26 10:07:52;;;;;;;5.30;5.10;;;11.10;1.00;;;;;;6297019;28;20331;-58
2022/12/26 10:11:01;;;;;;;5.00;4.90;;;11.10;1.00;;;;;;6286111;28;20816;-57
2022/12/26 10:14:11;;;;;;;5.30;5.00;;;11.10;1.00;;;;;;6302048;28;20240;-56
2022/12/26 10:17:32;;;;;;;4.80;4.63;;;11.10;1.00;;;;;;6303821;28;20248;-56
2022/12/26 10:20:44;;;;;;;4.80;4.70;;;11.10;1.00;;;;;;6301517;28;20229;-56
2022/12/26 10:23:51;;;;;;;5.60;5.20;;;11.10;1.00;;;;;;6297094;28;20248;-56
2022/12/26 10:27:01;;;;;;;5.20;5.00;;;11.10;1.00;;;;;;6291696;27;20660;-56
2022/12/26 10:30:07;;;;;;;5.03;4.93;;;11.20;1.00;;;;;;6284169;28;20297;-57
2022/12/26 10:33:18;;;;;;;4.97;4.80;;;11.20;1.00;;;;;;6301053;28;20609;-56
2022/12/26 10:36:30;;;;;;;4.83;4.73;;;11.20;1.00;;;;;;6303503;28;20240;-55
2022/12/26 10:39:37;;;;;;;5.13;4.73;;;11.20;1.00;;;;;;6306467;28;20244;-56
2022/12/26 10:42:43;;;;;;;4.97;4.77;;;11.20;1.00;;;;;;6287577;27;20745;-57
2022/12/26 10:45:51;;;;;;;4.80;4.67;;;11.10;1.00;;;;;;6288453;28;20237;-57
2022/12/26 10:48:55;;;;;;;4.73;4.63;;;11.10;1.00;;;;;;6299359;28;20236;-55
2022/12/26 10:52:01;;;;;;;5.07;4.87;;;11.10;1.00;;;;;;6294619;28;20578;-56
2022/12/26 10:55:05;;;;;;;4.57;4.47;;;11.00;1.00;;;;;;6291414;28;20294;-55
2022/12/26 10:58:33;;;;;;;4.50;4.37;;;11.00;1.00;;;;;;6283899;28;20311;-55
2022/12/26 11:01:39;;;;;;;4.30;4.20;;;11.00;1.00;;;;;;6288412;28;20415;-55
2022/12/26 11:04:58;;;;;;;4.90;4.60;;;11.00;1.00;;;;;;6289432;28;20259;-56
2022/12/26 11:08:25;;;;;;;4.60;4.40;;;11.00;1.00;;;;;;6295965;28;20328;-56
2022/12/26 11:11:44;;;;;;;4.50;4.37;;;10.90;1.00;;;;;;6294534;28;20237;-56
2022/12/26 11:14:50;;;;;;;4.60;4.50;;;10.90;1.00;;;;;;6306378;28;20225;-57
2022/12/26 11:17:53;;;;;;;4.43;4.20;;;10.80;1.00;;;;;;6299247;28;20576;-56
2022/12/26 11:21:12;;;;;;;4.27;4.17;;;10.80;1.00;;;;;;6302573;28;20228;-56
2022/12/26 11:24:19;;;;;;;3.97;3.87;;;10.80;1.00;;;;;;6293181;28;20294;-56
2022/12/26 11:27:24;;;;;;;4.80;4.70;;;10.80;1.00;;;;;;6286208;28;20262;-57
2022/12/26 11:30:32;;;;;;;4.03;4.03;;;10.80;1.00;;;;;;6274396;28;20653;-57
2022/12/26 11:33:41;;;;;;;4.13;4.03;;;10.70;1.00;;;;;;6291717;28;20231;-56
2022/12/26 11:36:47;;;;;;;4.47;4.37;;;10.70;1.00;;;;;;6295099;28;20240;-56
2022/12/26 11:39:51;;;;;;;4.73;4.60;;;10.70;1.00;;;;;;6283305;28;20289;-56
2022/12/26 11:42:56;;;;;;;4.47;4.37;;;10.70;1.00;;;;;;6295919;28;20739;-55
2022/12/26 11:46:01;;;;;;;4.27;4.17;;;10.60;1.00;;;;;;6287584;28;20482;-55
2022/12/26 11:49:05;;;;;;;4.47;4.37;;;10.70;1.00;;;;;;6294610;28;20597;-56
2022/12/26 11:52:36;;;;;;;4.33;4.23;;;10.70;1.00;;;;;;6295075;28;20289;-56
2022/12/26 11:55:40;;;;;;;4.60;4.30;;;10.70;1.00;;;;;;6302705;28;20228;-57
2022/12/26 11:58:43;;;;;;;4.53;4.30;;;10.70;1.00;;;;;;6307692;28;20315;-57
2022/12/26 12:02:11;;;;;;;4.23;4.13;;;10.70;1.00;;;;;;6303688;28;20232;-56
2022/12/26 12:05:16;;;;;;;4.80;4.50;;;10.80;1.00;;;;;;6300527;28;20693;-57
2022/12/26 12:08:33;;;;;;;4.53;4.43;;;10.70;1.00;;;;;;6284247;28;20238;-57
2022/12/26 12:11:41;;;;;;;4.80;4.60;;;10.80;1.00;;;;;;6290488;28;20252;-56
2022/12/26 12:14:58;;;;;;;4.60;4.50;;;10.80;1.00;;;;;;6299942;28;20602;-56
2022/12/26 12:18:12;;;;;;;4.87;4.77;;;10.80;1.00;;;;;;6293578;28;20317;-55
2022/12/26 12:21:26;;;;;;;4.60;4.43;;;10.70;1.00;;;;;;6305285;28;20634;-56
2022/12/26 12:24:46;;;;;;;4.50;4.40;;;10.70;1.00;;;;;;6291469;28;20245;-55
2022/12/26 12:27:58;;;;;;;5.47;5.17;;;10.70;1.00;;;;;;6293036;28;20707;-57
2022/12/26 12:31:07;;;;;;;5.53;5.20;;;10.70;1.00;;;;;;6305575;28;20705;-56
2022/12/26 12:34:23;;;;;;;5.00;4.90;;;10.70;1.00;;;;;;6279383;28;20233;-55
2022/12/26 12:37:37;;;;;;;5.30;5.10;;;10.70;1.00;;;;;;6295908;28;20498;-56
2022/12/26 12:40:51;;;;;;;6.00;5.70;;;10.60;1.00;;;;;;6290611;28;20236;-56
2022/12/26 12:44:02;;;;;;;5.33;5.13;;;10.60;1.00;;;;;;6275633;28;20237;-55
2022/12/26 12:47:15;;;;;;;5.40;5.10;;;10.60;1.00;;;;;;6284063;28;20265;-56
2022/12/26 12:50:28;;;;;;;5.27;5.07;;;10.60;1.00;;;;;;6293872;28;20645;-56
2022/12/26 12:53:55;;;;;;;5.33;5.00;;;10.60;1.00;;;;;;6304102;28;20502;-56
2022/12/26 12:57:06;;;;;;;5.33;5.13;;;10.60;1.00;;;;;;6286746;28;20299;-55
2022/12/26 13:00:15;;;;;;;5.23;5.03;;;10.70;1.00;;;;;;6284386;28;20270;-60
2022/12/26 13:03:25;;;;;;;5.40;5.20;;;10.70;1.00;;;;;;6283568;28;20270;-56
2022/12/26 13:06:36;;;;;;;6.30;5.93;;;10.80;1.00;;;;;;6291797;28;20509;-56
2022/12/26 13:09:44;;;;;;;5.30;5.10;;;10.80;1.00;;;;;;6286011;28;20238;-55
2022/12/26 13:12:49;;;;;;;5.10;5.00;;;10.80;1.00;;;;;;6284223;28;20229;-56
2022/12/26 13:15:57;;;;;;;5.30;5.07;;;10.70;1.00;;;;;;6288464;28;20421;-55
2022/12/26 13:19:03;;;;;;;5.77;5.57;;;10.80;1.00;;;;;;6279334;28;20604;-56
2022/12/26 13:22:13;;;;;;;6.00;5.70;;;10.70;1.00;;;;;;6283788;28;20280;-55
2022/12/26 13:25:17;;;;;;;5.87;5.40;;;10.80;1.00;;;;;;6286509;28;20454;-55
2022/12/26 13:28:29;;;;;;;5.23;5.03;;;10.80;1.00;;;;;;6280274;28;20237;-56
2022/12/26 13:31:33;;;;;;;6.50;5.87;;;10.70;1.00;;;;;;6288452;28;20244;-56
2022/12/26 13:34:37;;;;;;;6.17;5.87;;;10.70;1.00;;;;;;6300560;28;20243;-55
2022/12/26 13:37:57;;;;;;;6.23;5.83;;;10.70;1.00;;;;;;6294513;28;20372;-56
2022/12/26 13:44:26;;;;;;;5.63;5.33;;;10.70;1.00;;;;;;6301972;28;20245;-56
2022/12/26 13:47:35;;;;;;;6.17;5.77;;;10.60;1.00;;;;;;6283691;28;20233;-56
2022/12/26 13:50:49;;;;;;;6.10;5.80;;;10.60;1.00;;;;;;6280951;28;20471;-56
2022/12/26 13:54:10;;;;;;;6.10;5.63;;;10.60;1.00;;;;;;6290892;28;20517;-55
2022/12/26 13:57:35;;;;;;;5.50;5.30;;;10.50;1.00;;;;;;6307045;28;20236;-54
2022/12/26 14:00:44;;;;;;;5.67;5.47;;;10.50;1.00;;;;;;6287271;28;20224;-55
2022/12/26 14:04:02;;;;;;;5.63;5.33;;;10.50;1.00;;;;;;6279643;28;20533;-55
2022/12/26 14:07:22;;;;;;;6.27;5.97;;;10.50;1.00;;;;;;6288638;28;20629;-56
2022/12/26 14:10:36;;;;;;;6.03;5.73;;;10.50;1.00;;;;;;6307800;28;20237;-55
2022/12/26 14:13:59;;;;;;;6.83;6.43;;;10.50;1.00;;;;;;6298078;28;20279;-55
2022/12/26 14:17:15;;;;;;;6.53;6.20;;;10.50;1.00;;;;;;6289748;28;20240;-56
2022/12/26 14:20:35;;;;;;;6.47;6.07;;;10.40;1.00;;;;;;6290634;28;20237;-55
2022/12/26 14:23:47;;;;;;;6.77;6.27;;;10.40;1.00;;;;;;6302559;28;20407;-55
2022/12/26 14:27:13;;;;;;;6.60;6.20;;;10.40;1.00;;;;;;6297769;28;20697;-55
2022/12/26 14:30:23;;;;;;;6.00;5.70;;;10.40;1.00;;;;;;6297817;28;20245;-56
2022/12/26 14:33:32;;;;;;;6.47;5.97;;;10.30;1.00;;;;;;6305961;28;20246;-55
2022/12/26 14:36:42;;;;;;;7.33;6.87;;;10.30;1.00;;;;;;6299347;28;20289;-56
2022/12/26 14:40:02;;;;;;;6.27;6.07;;;10.20;1.00;;;;;;6300783;28;20684;-55
2022/12/26 14:43:13;;;;;;;5.87;5.67;;;10.20;1.00;;;;;;6292083;28;20241;-55
2022/12/26 14:47:01;;;;;;;6.03;5.67;;;10.20;1.00;;;;;;6308163;28;20241;-56
2022/12/26 14:50:40;;;;;;;6.30;5.90;;;10.20;1.00;;;;;;6273924;28;20678;-55
2022/12/26 14:53:45;;;;;;;6.07;5.77;;;10.20;1.00;;;;;;6304385;28;20235;-56
2022/12/26 14:56:50;;;;;;;6.37;5.87;;;10.20;1.00;;;;;;6295306;28;20236;-56
2022/12/26 15:00:32;;;;;;;6.00;5.60;;;10.20;1.00;;;;;;6283306;28;20240;-56
2022/12/26 15:03:47;;;;;;;6.63;6.27;;;10.20;1.00;;;;;;6229618;28;20234;-55
2022/12/26 15:07:16;;;;;;;5.77;5.47;;;10.30;1.00;;;;;;6241067;28;20575;-56
2022/12/26 15:10:51;;;;;;;5.90;5.60;;;10.30;1.00;;;;;;6287403;28;20479;-56
2022/12/26 15:14:23;;;;;;;5.57;5.27;;;10.20;1.00;;;;;;6300297;28;20225;-56
2022/12/26 15:17:38;;;;;;;5.97;5.63;;;10.30;1.00;;;;;;6290619;28;21228;-57
2022/12/26 15:21:20;;;;;;;5.60;5.30;;;10.30;1.00;;;;;;6270356;28;20229;-56
2022/12/26 15:24:53;;;;;;;5.73;5.47;;;10.30;1.00;;;;;;6304736;28;20241;-56
2022/12/26 15:28:33;;;;;;;6.07;5.77;;;10.40;1.00;;;;;;6279451;28;20358;-54
2022/12/26 15:31:44;;;;;;;6.50;6.10;;;10.30;1.00;;;;;;6299469;28;20243;-60
2022/12/26 15:35:06;;;;;;;5.73;5.33;;;10.30;1.00;;;;;;6295034;28;20238;-57
2022/12/26 15:38:21;;;;;;;6.03;5.70;;;10.20;1.00;;;;;;6285105;28;20237;-56
2022/12/26 15:41:33;;;;;;;6.13;5.70;;;10.10;1.00;;;;;;6303513;28;20225;-58
2022/12/26 15:44:46;;;;;;;7.00;6.40;;;10.00;1.00;;;;;;6281667;28;20264;-56
2022/12/26 15:47:57;;;;;;;6.40;6.10;;;9.90;1.00;;;;;;6289080;28;20236;-56
2022/12/26 15:51:06;;;;;;;6.43;6.10;;;9.90;1.00;;;;;;6295287;28;20309;-56
2022/12/26 15:54:22;;;;;;;6.47;6.07;;;9.90;1.00;;;;;;6292853;28;20390;-56
2022/12/26 15:57:35;;;;;;;6.23;5.93;;;9.90;1.00;;;;;;6307067;28;20244;-55
2022/12/26 16:00:47;;;;;;;6.40;6.10;;;9.80;1.00;;;;;;6293514;28;20227;-56
2022/12/26 16:03:54;;;;;;;6.53;6.17;;;9.70;1.00;;;;;;6289937;28;20229;-56
2022/12/26 16:07:07;;;;;;;6.80;6.40;;;9.70;1.00;;;;;;6297407;28;20233;-55
2022/12/26 16:10:28;;;;;;;5.60;5.30;;;9.70;1.00;;;;;;6282319;28;20329;-55
2022/12/26 16:13:33;;;;;;;6.13;5.73;;;9.60;1.00;;;;;;6278267;28;20746;-55
2022/12/26 16:16:38;;;;;;;6.23;5.80;;;9.60;1.00;;;;;;6294709;28;20232;-55
2022/12/26 16:19:42;;;;;;;5.90;5.60;;;9.60;1.00;;;;;;6302013;28;20240;-57
2022/12/26 16:22:45;;;;;;;5.83;5.40;;;9.70;1.00;;;;;;6301400;28;20251;-55
2022/12/26 16:25:50;;;;;;;5.40;5.10;;;9.60;1.00;;;;;;6293191;28;20541;-56
2022/12/26 16:28:54;;;;;;;5.30;5.10;;;9.60;1.00;;;;;;6291232;28;20601;-56
2022/12/26 16:32:03;;;;;;;5.83;5.53;;;9.60;1.00;;;;;;6283055;28;20217;-55
2022/12/26 16:35:07;;;;;;;5.30;4.90;;;9.60;1.00;;;;;;6294343;28;20229;-55
2022/12/26 16:38:15;;;;;;;5.50;5.20;;;9.60;1.00;;;;;;6305416;28;20483;-55
2022/12/26 16:41:23;;;;;;;5.53;5.23;;;9.60;1.00;;;;;;6306216;28;20236;-56
2022/12/26 16:44:30;;;;;;;5.77;5.37;;;9.60;1.00;;;;;;6306010;28;20529;-56
2022/12/26 16:47:33;;;;;;;4.77;4.57;;;9.60;1.00;;;;;;6298588;28;20589;-62
2022/12/26 16:50:45;;;;;;;5.27;5.00;;;9.70;1.00;;;;;;6305733;28;20707;-55
2022/12/26 16:53:50;;;;;;;5.00;4.77;;;9.60;1.00;;;;;;6305160;28;20687;-56
2022/12/26 16:57:02;;;;;;;4.50;4.40;;;9.70;1.00;;;;;;6277097;28;20336;-56
2022/12/26 17:00:06;;;;;;;4.93;4.70;;;9.70;1.00;;;;;;6297944;28;20335;-58
2022/12/26 17:03:26;;;;;;;4.60;4.30;;;9.70;1.00;;;;;;6297182;28;20225;-55
2022/12/26 17:06:31;;;;;;;4.23;4.03;;;9.70;1.00;;;;;;6296168;28;20240;-56
2022/12/26 17:09:43;;;;;;;4.63;4.43;;;9.70;1.00;;;;;;6303262;28;20390;-56
2022/12/26 17:12:47;;;;;;;4.07;3.87;;;9.70;1.00;;;;;;6295715;28;20235;-56
2022/12/26 17:15:53;;;;;;;4.60;4.37;;;9.70;1.00;;;;;;6298392;28;20237;-57
2022/12/26 17:19:08;;;;;;;4.20;4.00;;;9.80;1.00;;;;;;6305542;28;20394;-56
2022/12/26 17:22:27;;;;;;;4.17;3.90;;;9.80;1.00;;;;;;6287356;28;20249;-56
2022/12/26 17:25:33;;;;;;;3.60;3.50;;;9.90;1.00;;;;;;6282577;28;20248;-56
2022/12/26 17:28:37;;;;;;;4.03;3.93;;;9.90;1.00;;;;;;6290792;28;20458;-57
2022/12/26 17:31:43;;;;;;;4.00;3.90;;;9.90;1.00;;;;;;6293125;28;20711;-56
2022/12/26 17:34:46;;;;;;;3.97;3.73;;;10.00;1.00;;;;;;6300543;28;20229;-56
2022/12/26 17:37:54;;;;;;;3.53;3.33;;;9.90;1.00;;;;;;6304287;28;20241;-56
2022/12/26 17:41:02;;;;;;;3.97;3.87;;;9.90;1.00;;;;;;6300088;28;20229;-57
2022/12/26 17:44:38;;;;;;;4.23;4.03;;;9.90;1.00;;;;;;6302905;28;20248;-56
2022/12/26 17:47:41;;;;;;;3.80;3.60;;;9.80;1.00;;;;;;6283599;28;20238;-56
2022/12/26 17:50:46;;;;;;;3.83;3.73;;;9.80;1.00;;;;;;6281913;28;20250;-57
2022/12/26 17:53:51;;;;;;;4.40;4.00;;;9.80;1.00;;;;;;6278850;28;20240;-57
2022/12/26 17:56:55;;;;;;;3.67;3.57;;;9.70;1.00;;;;;;6300705;28;20228;-56
2022/12/26 17:59:58;;;;;;;4.03;3.70;;;9.60;1.00;;;;;;6300708;28;20233;-56
2022/12/26 18:03:01;;;;;;;4.20;3.90;;;9.60;1.00;;;;;;6293728;28;20237;-56
2022/12/26 18:06:05;;;;;;;3.83;3.67;;;9.60;1.00;;;;;;6269348;28;20254;-56
2022/12/26 18:09:21;;;;;;;3.80;3.60;;;9.60;1.00;;;;;;6305826;28;20232;-58
2022/12/26 18:12:25;;;;;;;3.10;3.10;;;9.50;1.00;;;;;;6286907;28;20725;-56
2022/12/26 18:15:30;;;;;;;3.90;3.70;;;9.50;1.00;;;;;;6300816;28;20248;-57
2022/12/26 18:18:36;;;;;;;3.90;3.70;;;9.40;1.00;;;;;;6288255;28;20241;-56
2022/12/26 18:21:39;;;;;;;3.77;3.50;;;9.40;1.00;;;;;;6294841;28;20697;-57
2022/12/26 18:24:42;;;;;;;3.30;3.20;;;9.40;1.00;;;;;;6286139;28;20260;-56
2022/12/26 18:27:46;;;;;;;4.43;4.13;;;9.40;1.00;;;;;;6293684;28;20244;-57
2022/12/26 18:30:49;;;;;;;4.00;3.80;;;9.30;1.00;;;;;;6286586;28;20229;-57
2022/12/26 18:33:52;;;;;;;3.70;3.50;;;9.40;1.00;;;;;;6278501;28;20238;-57
2022/12/26 18:36:55;;;;;;;3.80;3.60;;;9.20;1.00;;;;;;6303582;28;20229;-56
2022/12/26 18:39:58;;;;;;;4.10;3.40;;;9.20;1.00;;;;;;6296246;28;20736;-56
2022/12/26 18:43:04;;;;;;;3.67;3.47;;;9.20;1.00;;;;;;6282011;28;20479;-57
2022/12/26 18:46:15;;;;;;;4.03;3.93;;;9.20;1.00;;;;;;6305432;28;20233;-56
2022/12/26 18:49:18;;;;;;;5.03;4.73;;;9.10;1.00;;;;;;6304055;28;20323;-56